sensor_id;sensor_type;location;lat;lon;timestamp;P1;durP1;ratioP1;P2;durP2;ratioP2
25107;SDS011;13090;53.422;7.670;2023-02-28T00:01:50;7.13;;;3.92;;
25107;SDS011;13090;53.422;7.670;2023-02-28T00:06:52;10.32;;;4.38;;
25107;SDS011;13090;53.422;7.670;2023-02-28T00:11:56;14.68;;;4.97;;
25107;SDS011;13090;53.422;7.670;2023-02-28T00:16:58;9.27;;;4.55;;
25107;SDS011;13090;53.422;7.670;2023-02-28T00:22:00;11.32;;;3.95;;
25107;SDS011;13090;53.422;7.670;2023-02-28T00:27:04;11.68;;;4.97;;
25107;SDS011;13090;53.422;7.670;2023-02-28T00:32:06;7.93;;;4.38;;
25107;SDS011;13090;53.422;7.670;2023-02-28T00:37:08;6.47;;;3.50;;
25107;SDS011;13090;53.422;7.670;2023-02-28T00:42:13;8.25;;;3.97;;
25107;SDS011;13090;53.422;7.670;2023-02-28T00:47:15;8.63;;;3.80;;
25107;SDS011;13090;53.422;7.670;2023-02-28T00:52:18;7.30;;;3.88;;
25107;SDS011;13090;53.422;7.670;2023-02-28T00:57:21;10.50;;;4.30;;
25107;SDS011;13090;53.422;7.670;2023-02-28T01:02:24;5.18;;;3.80;;
25107;SDS011;13090;53.422;7.670;2023-02-28T01:07:26;9.50;;;4.05;;
25107;SDS011;13090;53.422;7.670;2023-02-28T01:12:30;8.38;;;3.80;;
25107;SDS011;13090;53.422;7.670;2023-02-28T01:17:32;6.05;;;3.78;;
25107;SDS011;13090;53.422;7.670;2023-02-28T01:22:34;13.70;;;5.00;;
25107;SDS011;13090;53.422;7.670;2023-02-28T01:27:38;12.77;;;4.10;;
25107;SDS011;13090;53.422;7.670;2023-02-28T01:32:40;7.15;;;4.45;;
25107;SDS011;13090;53.422;7.670;2023-02-28T01:37:42;8.70;;;4.20;;
25107;SDS011;13090;53.422;7.670;2023-02-28T01:42:46;7.88;;;3.63;;
25107;SDS011;13090;53.422;7.670;2023-02-28T01:47:48;7.55;;;3.53;;
25107;SDS011;13090;53.422;7.670;2023-02-28T01:52:53;7.70;;;3.97;;
25107;SDS011;13090;53.422;7.670;2023-02-28T01:58:00;6.72;;;3.70;;
25107;SDS011;13090;53.422;7.670;2023-02-28T02:08:09;8.18;;;3.88;;
25107;SDS011;13090;53.422;7.670;2023-02-28T02:13:21;7.82;;;3.83;;
25107;SDS011;13090;53.422;7.670;2023-02-28T02:18:50;5.55;;;3.90;;
25107;SDS011;13090;53.422;7.670;2023-02-28T02:29:33;9.10;;;3.60;;
25107;SDS011;13090;53.422;7.670;2023-02-28T02:34:52;7.35;;;3.90;;
25107;SDS011;13090;53.422;7.670;2023-02-28T02:40:04;4.93;;;3.40;;
25107;SDS011;13090;53.422;7.670;2023-02-28T02:45:16;5.55;;;3.60;;
25107;SDS011;13090;53.422;7.670;2023-02-28T02:50:26;5.25;;;3.35;;
25107;SDS011;13090;53.422;7.670;2023-02-28T02:55:33;6.82;;;3.60;;
25107;SDS011;13090;53.422;7.670;2023-02-28T03:00:39;5.97;;;3.70;;
25107;SDS011;13090;53.422;7.670;2023-02-28T03:05:48;6.20;;;3.70;;
25107;SDS011;13090;53.422;7.670;2023-02-28T03:10:51;5.10;;;3.93;;
25107;SDS011;13090;53.422;7.670;2023-02-28T03:16:02;7.50;;;4.07;;
25107;SDS011;13090;53.422;7.670;2023-02-28T03:21:26;6.77;;;4.90;;
25107;SDS011;13090;53.422;7.670;2023-02-28T03:26:34;7.00;;;4.30;;
25107;SDS011;13090;53.422;7.670;2023-02-28T03:31:41;8.50;;;4.05;;
25107;SDS011;13090;53.422;7.670;2023-02-28T03:36:51;6.38;;;4.05;;
25107;SDS011;13090;53.422;7.670;2023-02-28T03:41:57;6.82;;;4.22;;
25107;SDS011;13090;53.422;7.670;2023-02-28T03:47:02;6.75;;;4.07;;
25107;SDS011;13090;53.422;7.670;2023-02-28T03:52:13;5.63;;;4.22;;
25107;SDS011;13090;53.422;7.670;2023-02-28T03:57:20;5.03;;;3.55;;
25107;SDS011;13090;53.422;7.670;2023-02-28T04:02:29;7.60;;;4.68;;
25107;SDS011;13090;53.422;7.670;2023-02-28T04:07:33;5.38;;;4.32;;
25107;SDS011;13090;53.422;7.670;2023-02-28T04:12:35;8.77;;;4.13;;
25107;SDS011;13090;53.422;7.670;2023-02-28T04:17:38;7.63;;;4.57;;
25107;SDS011;13090;53.422;7.670;2023-02-28T04:22:41;5.80;;;4.13;;
25107;SDS011;13090;53.422;7.670;2023-02-28T04:27:43;5.40;;;4.25;;
25107;SDS011;13090;53.422;7.670;2023-02-28T04:32:45;7.05;;;4.13;;
25107;SDS011;13090;53.422;7.670;2023-02-28T04:37:49;9.07;;;5.32;;
25107;SDS011;13090;53.422;7.670;2023-02-28T04:42:51;8.20;;;4.63;;
25107;SDS011;13090;53.422;7.670;2023-02-28T04:47:53;9.73;;;5.65;;
25107;SDS011;13090;53.422;7.670;2023-02-28T04:52:57;8.70;;;5.15;;
25107;SDS011;13090;53.422;7.670;2023-02-28T04:57:59;7.93;;;4.95;;
25107;SDS011;13090;53.422;7.670;2023-02-28T05:03:02;8.32;;;5.07;;
25107;SDS011;13090;53.422;7.670;2023-02-28T05:08:05;9.63;;;4.55;;
25107;SDS011;13090;53.422;7.670;2023-02-28T05:13:09;6.28;;;4.32;;
25107;SDS011;13090;53.422;7.670;2023-02-28T05:18:13;8.10;;;4.65;;
25107;SDS011;13090;53.422;7.670;2023-02-28T05:23:16;7.07;;;4.85;;
25107;SDS011;13090;53.422;7.670;2023-02-28T05:28:21;8.65;;;5.15;;
25107;SDS011;13090;53.422;7.670;2023-02-28T05:33:23;6.10;;;4.75;;
25107;SDS011;13090;53.422;7.670;2023-02-28T05:38:26;8.52;;;4.90;;
25107;SDS011;13090;53.422;7.670;2023-02-28T05:43:29;9.70;;;5.40;;
25107;SDS011;13090;53.422;7.670;2023-02-28T05:48:31;7.30;;;4.78;;
25107;SDS011;13090;53.422;7.670;2023-02-28T05:53:35;7.53;;;5.10;;
25107;SDS011;13090;53.422;7.670;2023-02-28T05:58:37;6.60;;;4.30;;
25107;SDS011;13090;53.422;7.670;2023-02-28T06:03:39;7.07;;;5.07;;
25107;SDS011;13090;53.422;7.670;2023-02-28T06:08:43;10.63;;;6.18;;
25107;SDS011;13090;53.422;7.670;2023-02-28T06:13:45;13.98;;;8.75;;
25107;SDS011;13090;53.422;7.670;2023-02-28T06:18:48;10.15;;;7.05;;
25107;SDS011;13090;53.422;7.670;2023-02-28T06:23:51;13.40;;;8.40;;
25107;SDS011;13090;53.422;7.670;2023-02-28T06:28:53;13.60;;;8.35;;
25107;SDS011;13090;53.422;7.670;2023-02-28T06:33:59;13.25;;;7.93;;
25107;SDS011;13090;53.422;7.670;2023-02-28T06:39:03;17.67;;;10.93;;
25107;SDS011;13090;53.422;7.670;2023-02-28T06:44:08;11.48;;;7.05;;
25107;SDS011;13090;53.422;7.670;2023-02-28T06:49:13;10.80;;;7.50;;
25107;SDS011;13090;53.422;7.670;2023-02-28T06:54:18;12.50;;;7.18;;
25107;SDS011;13090;53.422;7.670;2023-02-28T06:59:20;13.25;;;8.50;;
25107;SDS011;13090;53.422;7.670;2023-02-28T07:04:23;14.20;;;9.27;;
25107;SDS011;13090;53.422;7.670;2023-02-28T07:09:26;8.60;;;6.15;;
25107;SDS011;13090;53.422;7.670;2023-02-28T07:14:28;9.80;;;5.85;;
25107;SDS011;13090;53.422;7.670;2023-02-28T07:19:31;6.82;;;5.15;;
25107;SDS011;13090;53.422;7.670;2023-02-28T07:24:34;7.53;;;5.40;;
25107;SDS011;13090;53.422;7.670;2023-02-28T07:29:37;12.00;;;7.90;;
25107;SDS011;13090;53.422;7.670;2023-02-28T07:34:39;5.95;;;5.32;;
25107;SDS011;13090;53.422;7.670;2023-02-28T07:39:42;5.97;;;4.32;;
25107;SDS011;13090;53.422;7.670;2023-02-28T07:44:44;7.20;;;4.78;;
25107;SDS011;13090;53.422;7.670;2023-02-28T07:49:48;6.50;;;4.45;;
25107;SDS011;13090;53.422;7.670;2023-02-28T07:54:51;7.18;;;4.50;;
25107;SDS011;13090;53.422;7.670;2023-02-28T07:59:54;7.30;;;4.88;;
25107;SDS011;13090;53.422;7.670;2023-02-28T08:04:56;9.25;;;5.03;;
25107;SDS011;13090;53.422;7.670;2023-02-28T08:10:00;28.48;;;16.38;;
25107;SDS011;13090;53.422;7.670;2023-02-28T08:15:02;7.65;;;5.00;;
25107;SDS011;13090;53.422;7.670;2023-02-28T08:20:05;5.72;;;4.15;;
25107;SDS011;13090;53.422;7.670;2023-02-28T08:25:10;7.97;;;5.72;;
25107;SDS011;13090;53.422;7.670;2023-02-28T08:30:12;6.78;;;5.05;;
25107;SDS011;13090;53.422;7.670;2023-02-28T08:35:15;6.35;;;4.95;;
25107;SDS011;13090;53.422;7.670;2023-02-28T08:40:19;9.35;;;7.25;;
25107;SDS011;13090;53.422;7.670;2023-02-28T08:45:22;5.97;;;3.78;;
25107;SDS011;13090;53.422;7.670;2023-02-28T08:50:24;5.50;;;3.35;;
25107;SDS011;13090;53.422;7.670;2023-02-28T08:55:27;4.97;;;3.55;;
25107;SDS011;13090;53.422;7.670;2023-02-28T09:00:30;4.30;;;3.35;;
25107;SDS011;13090;53.422;7.670;2023-02-28T09:05:32;5.57;;;3.58;;
25107;SDS011;13090;53.422;7.670;2023-02-28T09:10:36;5.78;;;4.47;;
25107;SDS011;13090;53.422;7.670;2023-02-28T09:15:38;8.07;;;4.50;;
25107;SDS011;13090;53.422;7.670;2023-02-28T09:20:40;4.88;;;3.53;;
25107;SDS011;13090;53.422;7.670;2023-02-28T09:25:48;4.28;;;3.30;;
25107;SDS011;13090;53.422;7.670;2023-02-28T09:30:53;5.43;;;3.83;;
25107;SDS011;13090;53.422;7.670;2023-02-28T09:35:59;7.07;;;3.88;;
25107;SDS011;13090;53.422;7.670;2023-02-28T09:46:18;3.97;;;3.22;;
25107;SDS011;13090;53.422;7.670;2023-02-28T09:51:39;4.47;;;3.22;;
25107;SDS011;13090;53.422;7.670;2023-02-28T09:56:49;4.85;;;3.72;;
25107;SDS011;13090;53.422;7.670;2023-02-28T10:01:54;4.72;;;3.83;;
25107;SDS011;13090;53.422;7.670;2023-02-28T10:07:06;4.85;;;4.00;;
25107;SDS011;13090;53.422;7.670;2023-02-28T10:12:20;6.88;;;4.25;;
25107;SDS011;13090;53.422;7.670;2023-02-28T10:17:23;7.15;;;4.07;;
25107;SDS011;13090;53.422;7.670;2023-02-28T10:22:31;4.72;;;3.92;;
25107;SDS011;13090;53.422;7.670;2023-02-28T10:27:41;7.22;;;4.05;;
25107;SDS011;13090;53.422;7.670;2023-02-28T10:32:45;5.18;;;4.00;;
25107;SDS011;13090;53.422;7.670;2023-02-28T10:37:54;4.45;;;3.65;;
25107;SDS011;13090;53.422;7.670;2023-02-28T10:42:59;9.45;;;4.13;;
25107;SDS011;13090;53.422;7.670;2023-02-28T10:48:04;6.13;;;4.13;;
25107;SDS011;13090;53.422;7.670;2023-02-28T10:53:15;6.22;;;4.20;;
25107;SDS011;13090;53.422;7.670;2023-02-28T10:58:28;5.43;;;3.85;;
25107;SDS011;13090;53.422;7.670;2023-02-28T11:03:33;4.37;;;3.43;;
25107;SDS011;13090;53.422;7.670;2023-02-28T11:08:43;4.68;;;3.40;;
25107;SDS011;13090;53.422;7.670;2023-02-28T11:13:50;5.72;;;3.67;;
25107;SDS011;13090;53.422;7.670;2023-02-28T11:18:54;5.73;;;3.70;;
25107;SDS011;13090;53.422;7.670;2023-02-28T11:24:00;4.45;;;3.58;;
25107;SDS011;13090;53.422;7.670;2023-02-28T11:29:11;5.03;;;3.33;;
25107;SDS011;13090;53.422;7.670;2023-02-28T11:34:26;9.68;;;4.13;;
25107;SDS011;13090;53.422;7.670;2023-02-28T11:39:29;4.10;;;3.38;;
25107;SDS011;13090;53.422;7.670;2023-02-28T11:44:38;4.28;;;3.50;;
25107;SDS011;13090;53.422;7.670;2023-02-28T11:49:50;5.07;;;3.65;;
25107;SDS011;13090;53.422;7.670;2023-02-28T11:55:07;5.22;;;4.00;;
25107;SDS011;13090;53.422;7.670;2023-02-28T12:00:25;3.50;;;2.97;;
25107;SDS011;13090;53.422;7.670;2023-02-28T12:05:38;6.75;;;3.85;;
25107;SDS011;13090;53.422;7.670;2023-02-28T12:10:50;5.97;;;4.18;;
25107;SDS011;13090;53.422;7.670;2023-02-28T12:21:51;6.53;;;3.90;;
25107;SDS011;13090;53.422;7.670;2023-02-28T12:27:13;5.10;;;3.30;;
25107;SDS011;13090;53.422;7.670;2023-02-28T12:32:21;9.70;;;5.82;;
25107;SDS011;13090;53.422;7.670;2023-02-28T12:37:29;9.88;;;5.38;;
25107;SDS011;13090;53.422;7.670;2023-02-28T12:42:39;5.63;;;3.63;;
25107;SDS011;13090;53.422;7.670;2023-02-28T12:47:48;6.35;;;4.15;;
25107;SDS011;13090;53.422;7.670;2023-02-28T12:52:58;6.45;;;3.75;;
25107;SDS011;13090;53.422;7.670;2023-02-28T12:58:07;5.60;;;3.58;;
25107;SDS011;13090;53.422;7.670;2023-02-28T13:03:23;4.10;;;3.22;;
25107;SDS011;13090;53.422;7.670;2023-02-28T13:09:00;5.30;;;3.67;;
25107;SDS011;13090;53.422;7.670;2023-02-28T13:14:23;4.17;;;3.57;;
25107;SDS011;13090;53.422;7.670;2023-02-28T13:19:30;5.50;;;3.47;;
25107;SDS011;13090;53.422;7.670;2023-02-28T13:29:55;6.20;;;3.58;;
25107;SDS011;13090;53.422;7.670;2023-02-28T13:35:15;5.18;;;3.88;;
25107;SDS011;13090;53.422;7.670;2023-02-28T13:40:38;6.75;;;4.25;;
25107;SDS011;13090;53.422;7.670;2023-02-28T13:45:44;7.25;;;3.80;;
25107;SDS011;13090;53.422;7.670;2023-02-28T13:56:47;6.00;;;3.83;;
25107;SDS011;13090;53.422;7.670;2023-02-28T14:07:48;5.13;;;3.25;;
25107;SDS011;13090;53.422;7.670;2023-02-28T14:12:54;5.43;;;3.10;;
25107;SDS011;13090;53.422;7.670;2023-02-28T14:18:03;4.10;;;2.85;;
25107;SDS011;13090;53.422;7.670;2023-02-28T14:23:20;6.25;;;2.80;;
25107;SDS011;13090;53.422;7.670;2023-02-28T14:28:42;4.85;;;3.55;;
25107;SDS011;13090;53.422;7.670;2023-02-28T14:33:59;6.53;;;3.70;;
25107;SDS011;13090;53.422;7.670;2023-02-28T14:39:21;5.22;;;4.10;;
25107;SDS011;13090;53.422;7.670;2023-02-28T14:44:26;5.28;;;3.42;;
25107;SDS011;13090;53.422;7.670;2023-02-28T14:49:30;6.13;;;3.88;;
25107;SDS011;13090;53.422;7.670;2023-02-28T14:54:37;5.18;;;3.90;;
25107;SDS011;13090;53.422;7.670;2023-02-28T14:59:40;5.95;;;3.67;;
25107;SDS011;13090;53.422;7.670;2023-02-28T15:04:42;5.68;;;4.22;;
25107;SDS011;13090;53.422;7.670;2023-02-28T15:09:46;4.72;;;3.55;;
25107;SDS011;13090;53.422;7.670;2023-02-28T15:14:48;6.03;;;3.78;;
25107;SDS011;13090;53.422;7.670;2023-02-28T15:19:52;5.10;;;3.38;;
25107;SDS011;13090;53.422;7.670;2023-02-28T15:24:57;6.43;;;3.75;;
25107;SDS011;13090;53.422;7.670;2023-02-28T15:30:00;5.05;;;2.92;;
25107;SDS011;13090;53.422;7.670;2023-02-28T15:35:18;6.45;;;3.70;;
25107;SDS011;13090;53.422;7.670;2023-02-28T15:40:29;7.63;;;4.85;;
25107;SDS011;13090;53.422;7.670;2023-02-28T15:45:34;8.18;;;4.72;;
25107;SDS011;13090;53.422;7.670;2023-02-28T15:50:39;7.45;;;3.50;;
25107;SDS011;13090;53.422;7.670;2023-02-28T15:55:44;5.45;;;2.92;;
25107;SDS011;13090;53.422;7.670;2023-02-28T16:01:00;4.32;;;3.05;;
25107;SDS011;13090;53.422;7.670;2023-02-28T16:11:37;4.32;;;2.67;;
25107;SDS011;13090;53.422;7.670;2023-02-28T16:16:42;5.68;;;3.25;;
25107;SDS011;13090;53.422;7.670;2023-02-28T16:21:46;4.10;;;2.72;;
25107;SDS011;13090;53.422;7.670;2023-02-28T16:26:50;5.55;;;2.78;;
25107;SDS011;13090;53.422;7.670;2023-02-28T16:31:55;4.70;;;3.05;;
25107;SDS011;13090;53.422;7.670;2023-02-28T16:36:58;4.35;;;2.63;;
25107;SDS011;13090;53.422;7.670;2023-02-28T16:42:02;4.07;;;2.75;;
25107;SDS011;13090;53.422;7.670;2023-02-28T16:47:04;6.03;;;2.60;;
25107;SDS011;13090;53.422;7.670;2023-02-28T16:52:06;2.65;;;2.03;;
25107;SDS011;13090;53.422;7.670;2023-02-28T16:57:19;3.88;;;2.90;;
25107;SDS011;13090;53.422;7.670;2023-02-28T17:07:33;6.10;;;3.42;;
25107;SDS011;13090;53.422;7.670;2023-02-28T17:12:36;6.43;;;3.10;;
25107;SDS011;13090;53.422;7.670;2023-02-28T17:17:39;4.13;;;2.90;;
25107;SDS011;13090;53.422;7.670;2023-02-28T17:22:42;5.82;;;3.22;;
25107;SDS011;13090;53.422;7.670;2023-02-28T17:27:46;6.10;;;3.22;;
25107;SDS011;13090;53.422;7.670;2023-02-28T17:32:48;6.47;;;3.75;;
25107;SDS011;13090;53.422;7.670;2023-02-28T17:37:51;9.23;;;4.70;;
25107;SDS011;13090;53.422;7.670;2023-02-28T17:42:55;6.53;;;4.10;;
25107;SDS011;13090;53.422;7.670;2023-02-28T17:47:57;8.45;;;4.60;;
25107;SDS011;13090;53.422;7.670;2023-02-28T17:52:59;6.32;;;3.90;;
25107;SDS011;13090;53.422;7.670;2023-02-28T17:58:03;7.32;;;3.42;;
25107;SDS011;13090;53.422;7.670;2023-02-28T18:03:05;5.85;;;2.90;;
25107;SDS011;13090;53.422;7.670;2023-02-28T18:08:08;8.93;;;3.30;;
25107;SDS011;13090;53.422;7.670;2023-02-28T18:13:13;3.97;;;2.60;;
25107;SDS011;13090;53.422;7.670;2023-02-28T18:18:15;3.88;;;2.78;;
25107;SDS011;13090;53.422;7.670;2023-02-28T18:23:17;9.55;;;3.70;;
25107;SDS011;13090;53.422;7.670;2023-02-28T18:28:20;4.00;;;2.83;;
25107;SDS011;13090;53.422;7.670;2023-02-28T18:33:23;6.30;;;3.92;;
25107;SDS011;13090;53.422;7.670;2023-02-28T18:38:25;9.02;;;4.43;;
25107;SDS011;13090;53.422;7.670;2023-02-28T18:43:29;6.82;;;4.00;;
25107;SDS011;13090;53.422;7.670;2023-02-28T18:48:33;7.40;;;4.68;;
25107;SDS011;13090;53.422;7.670;2023-02-28T18:53:36;8.40;;;3.53;;
25107;SDS011;13090;53.422;7.670;2023-02-28T18:58:42;8.88;;;5.78;;
25107;SDS011;13090;53.422;7.670;2023-02-28T19:03:44;8.23;;;5.60;;
25107;SDS011;13090;53.422;7.670;2023-02-28T19:08:46;9.60;;;5.15;;
25107;SDS011;13090;53.422;7.670;2023-02-28T19:13:50;8.45;;;5.05;;
25107;SDS011;13090;53.422;7.670;2023-02-28T19:18:52;6.75;;;5.10;;
25107;SDS011;13090;53.422;7.670;2023-02-28T19:23:55;11.93;;;7.80;;
25107;SDS011;13090;53.422;7.670;2023-02-28T19:29:00;10.82;;;6.13;;
25107;SDS011;13090;53.422;7.670;2023-02-28T19:34:03;8.32;;;5.10;;
25107;SDS011;13090;53.422;7.670;2023-02-28T19:39:05;12.65;;;6.28;;
25107;SDS011;13090;53.422;7.670;2023-02-28T19:44:08;12.13;;;5.90;;
25107;SDS011;13090;53.422;7.670;2023-02-28T19:49:10;12.23;;;6.90;;
25107;SDS011;13090;53.422;7.670;2023-02-28T19:54:12;11.80;;;6.80;;
25107;SDS011;13090;53.422;7.670;2023-02-28T19:59:16;13.20;;;7.03;;
25107;SDS011;13090;53.422;7.670;2023-02-28T20:09:28;10.27;;;6.03;;
25107;SDS011;13090;53.422;7.670;2023-02-28T20:14:32;9.13;;;5.63;;
25107;SDS011;13090;53.422;7.670;2023-02-28T20:19:34;8.02;;;5.35;;
25107;SDS011;13090;53.422;7.670;2023-02-28T20:24:36;14.95;;;7.88;;
25107;SDS011;13090;53.422;7.670;2023-02-28T20:29:40;50.13;;;19.40;;
25107;SDS011;13090;53.422;7.670;2023-02-28T20:34:42;53.28;;;19.75;;
25107;SDS011;13090;53.422;7.670;2023-02-28T20:39:44;48.65;;;18.90;;
25107;SDS011;13090;53.422;7.670;2023-02-28T20:44:48;25.63;;;13.00;;
25107;SDS011;13090;53.422;7.670;2023-02-28T20:49:50;21.73;;;10.35;;
25107;SDS011;13090;53.422;7.670;2023-02-28T20:54:52;23.02;;;10.10;;
25107;SDS011;13090;53.422;7.670;2023-02-28T20:59:56;12.63;;;7.72;;
25107;SDS011;13090;53.422;7.670;2023-02-28T21:04:58;16.45;;;8.75;;
25107;SDS011;13090;53.422;7.670;2023-02-28T21:10:00;24.70;;;12.90;;
25107;SDS011;13090;53.422;7.670;2023-02-28T21:15:04;24.88;;;13.07;;
25107;SDS011;13090;53.422;7.670;2023-02-28T21:20:07;23.02;;;12.13;;
25107;SDS011;13090;53.422;7.670;2023-02-28T21:25:10;20.67;;;10.60;;
25107;SDS011;13090;53.422;7.670;2023-02-28T21:35:17;17.83;;;10.55;;
25107;SDS011;13090;53.422;7.670;2023-02-28T21:40:20;21.73;;;11.57;;
25107;SDS011;13090;53.422;7.670;2023-02-28T21:45:23;20.67;;;11.15;;
25107;SDS011;13090;53.422;7.670;2023-02-28T21:50:25;34.45;;;16.58;;
25107;SDS011;13090;53.422;7.670;2023-02-28T21:55:28;39.10;;;16.65;;
25107;SDS011;13090;53.422;7.670;2023-02-28T22:00:31;27.75;;;14.95;;
25107;SDS011;13090;53.422;7.670;2023-02-28T22:05:33;27.25;;;13.55;;
25107;SDS011;13090;53.422;7.670;2023-02-28T22:10:36;20.45;;;10.70;;
25107;SDS011;13090;53.422;7.670;2023-02-28T22:15:39;26.35;;;13.70;;
25107;SDS011;13090;53.422;7.670;2023-02-28T22:20:41;22.10;;;13.68;;
25107;SDS011;13090;53.422;7.670;2023-02-28T22:25:43;17.42;;;10.32;;
25107;SDS011;13090;53.422;7.670;2023-02-28T22:30:47;17.85;;;10.70;;
25107;SDS011;13090;53.422;7.670;2023-02-28T22:35:50;17.17;;;9.95;;
25107;SDS011;13090;53.422;7.670;2023-02-28T22:40:55;18.02;;;10.20;;
25107;SDS011;13090;53.422;7.670;2023-02-28T22:46:01;16.58;;;9.27;;
25107;SDS011;13090;53.422;7.670;2023-02-28T22:56:08;17.05;;;8.77;;
25107;SDS011;13090;53.422;7.670;2023-02-28T23:01:13;12.45;;;8.38;;
25107;SDS011;13090;53.422;7.670;2023-02-28T23:06:18;13.98;;;8.00;;
25107;SDS011;13090;53.422;7.670;2023-02-28T23:11:24;14.43;;;9.00;;
25107;SDS011;13090;53.422;7.670;2023-02-28T23:16:30;16.13;;;8.27;;
25107;SDS011;13090;53.422;7.670;2023-02-28T23:21:34;14.68;;;7.85;;
25107;SDS011;13090;53.422;7.670;2023-02-28T23:26:37;13.18;;;7.38;;
25107;SDS011;13090;53.422;7.670;2023-02-28T23:31:42;11.00;;;6.65;;
25107;SDS011;13090;53.422;7.670;2023-02-28T23:36:45;12.82;;;7.35;;
25107;SDS011;13090;53.422;7.670;2023-02-28T23:41:47;12.77;;;7.70;;
25107;SDS011;13090;53.422;7.670;2023-02-28T23:46:52;12.55;;;7.75;;
25107;SDS011;13090;53.422;7.670;2023-02-28T23:51:54;10.95;;;7.53;;
25107;SDS011;13090;53.422;7.670;2023-02-28T23:56:56;13.23;;;7.80;;
